createdAt,value
2018-05-31T00:00:27.509Z,1010.21
2018-05-31T00:01:27.576Z,1010.19
2018-05-31T00:02:27.741Z,1010.21
2018-05-31T00:03:27.809Z,1010.17
2018-05-31T00:04:27.785Z,1010.15
2018-05-31T00:05:27.845Z,1010.17
2018-05-31T00:06:27.977Z,1010.16
2018-05-31T00:07:28.117Z,1010.13
2018-05-31T00:08:28.075Z,1010.13
2018-05-31T00:09:28.153Z,1010.12
2018-05-31T00:10:28.189Z,1010.09
2018-05-31T00:11:28.249Z,1010.08
2018-05-31T00:12:28.549Z,1010.11
2018-05-31T00:13:28.405Z,1010.09
2018-05-31T00:14:28.463Z,1010.12
2018-05-31T00:15:28.525Z,1010.09
2018-05-31T00:16:29.249Z,1010.05
2018-05-31T00:17:28.657Z,1010.04
2018-05-31T00:18:28.730Z,1010.02
2018-05-31T00:19:28.802Z,1010.03
2018-05-31T00:20:28.858Z,1010.04
2018-05-31T00:21:28.930Z,1010.01
2018-05-31T00:22:28.994Z,1010.01
2018-05-31T00:23:29.066Z,1010.00
2018-05-31T00:24:29.530Z,1010.02
2018-05-31T00:25:29.197Z,1010.03
2018-05-31T00:26:29.261Z,1009.99
2018-05-31T00:27:29.332Z,1010.02
2018-05-31T00:28:29.402Z,1010.04
2018-05-31T00:29:29.470Z,1010.02
2018-05-31T00:30:29.530Z,1010.05
2018-05-31T00:31:29.598Z,1010.05
2018-05-31T00:32:29.977Z,1010.04
2018-05-31T00:33:29.738Z,1010.06
2018-05-31T00:34:29.808Z,1010.05
2018-05-31T00:35:30.242Z,1010.03
2018-05-31T00:36:29.935Z,1010.05
2018-05-31T00:37:30.004Z,1010.06
2018-05-31T00:38:30.174Z,1010.04
2018-05-31T00:39:30.895Z,1010.04
2018-05-31T00:40:30.930Z,1010.05
2018-05-31T00:41:30.275Z,1010.04
2018-05-31T00:42:30.338Z,1010.02
2018-05-31T00:43:30.411Z,1010.01
2018-05-31T00:44:30.478Z,1010.02
2018-05-31T00:45:30.539Z,1010.00
2018-05-31T00:46:30.607Z,1010.00
2018-05-31T00:47:30.946Z,1009.98
2018-05-31T00:48:30.747Z,1009.99
2018-05-31T00:49:30.814Z,1009.98
2018-05-31T00:50:30.875Z,1009.95
2018-05-31T00:51:30.943Z,1009.99
2018-05-31T00:52:31.611Z,1009.97
2018-05-31T00:53:31.388Z,1009.97
2018-05-31T00:54:31.143Z,1009.99
2018-05-31T00:55:31.211Z,1010.01
2018-05-31T00:56:31.279Z,1009.97
2018-05-31T00:57:31.347Z,1009.99
2018-05-31T00:58:31.419Z,1009.94
2018-05-31T00:59:31.487Z,1010.00
2018-05-31T01:00:31.547Z,1009.99
2018-05-31T01:01:31.831Z,1009.99
2018-05-31T01:02:31.679Z,1009.97
2018-05-31T01:03:31.756Z,1009.97
2018-05-31T01:04:31.823Z,1009.97
2018-05-31T01:05:31.883Z,1009.98
2018-05-31T01:06:31.952Z,1009.98
2018-05-31T01:07:32.735Z,1010.00
2018-05-31T01:08:32.239Z,1010.01
2018-05-31T01:09:32.768Z,1009.99
2018-05-31T01:10:32.523Z,1010.01
2018-05-31T01:11:33.075Z,1010.07
2018-05-31T01:12:32.352Z,1010.04
2018-05-31T01:13:32.428Z,1010.04
2018-05-31T01:14:32.499Z,1010.11
2018-05-31T01:15:33.116Z,1010.08
2018-05-31T01:16:32.621Z,1010.12
2018-05-31T01:17:32.684Z,1010.06
2018-05-31T01:18:33.072Z,1010.04
2018-05-31T01:19:32.829Z,1010.09
2018-05-31T01:20:33.016Z,1010.08
2018-05-31T01:21:33.172Z,1010.04
2018-05-31T01:22:33.036Z,1010.03
2018-05-31T01:23:33.240Z,1010.02
2018-05-31T01:24:33.157Z,1010.07
2018-05-31T01:25:33.300Z,1010.07
2018-05-31T01:26:33.356Z,1010.09
2018-05-31T01:27:33.360Z,1010.08
2018-05-31T01:28:33.433Z,1010.09
2018-05-31T01:29:33.600Z,1010.09
2018-05-31T01:30:33.565Z,1010.10
2018-05-31T01:31:33.628Z,1010.08
2018-05-31T01:32:33.693Z,1010.12
2018-05-31T01:33:33.769Z,1010.14
2018-05-31T01:34:33.833Z,1010.10
2018-05-31T01:35:34.025Z,1010.11
2018-05-31T01:36:33.961Z,1010.13
2018-05-31T01:37:34.029Z,1010.05
2018-05-31T01:38:34.321Z,1010.03
2018-05-31T01:39:34.165Z,1010.06
2018-05-31T01:40:34.229Z,1009.99
2018-05-31T01:41:34.297Z,1010.01
2018-05-31T01:42:34.449Z,1010.04
2018-05-31T01:43:34.437Z,1010.00
2018-05-31T01:44:34.508Z,1010.00
2018-05-31T01:45:34.569Z,1009.97
2018-05-31T01:46:34.633Z,1010.02
2018-05-31T01:47:35.305Z,1009.96
2018-05-31T01:48:34.774Z,1009.97
2018-05-31T01:49:35.149Z,1009.95
2018-05-31T01:50:35.142Z,1009.92
2018-05-31T01:51:34.973Z,1009.94
2018-05-31T01:52:35.034Z,1009.93
2018-05-31T01:53:35.209Z,1009.94
2018-05-31T01:54:35.169Z,1009.94
2018-05-31T01:55:35.773Z,1009.95
2018-05-31T01:56:35.310Z,1009.94
2018-05-31T01:57:35.501Z,1009.99
2018-05-31T01:58:35.442Z,1009.96
2018-05-31T01:59:35.510Z,1009.97
2018-05-31T02:00:35.570Z,1009.97
2018-05-31T02:01:35.986Z,1009.94
2018-05-31T02:02:35.706Z,1009.94
2018-05-31T02:03:35.779Z,1009.95
2018-05-31T02:04:36.450Z,1009.97
2018-05-31T02:05:35.910Z,1010.00
2018-05-31T02:06:35.974Z,1010.00
2018-05-31T02:07:36.038Z,1009.98
2018-05-31T02:08:36.122Z,1010.04
2018-05-31T02:09:36.314Z,1010.04
2018-05-31T02:10:36.285Z,1010.00
2018-05-31T02:11:36.307Z,1010.01
2018-05-31T02:12:36.374Z,1010.10
2018-05-31T02:13:36.731Z,1010.15
2018-05-31T02:14:36.515Z,1010.25
2018-05-31T02:15:36.575Z,1010.27
2018-05-31T02:16:36.642Z,1010.25
2018-05-31T02:17:36.717Z,1010.16
2018-05-31T02:18:36.783Z,1010.04
2018-05-31T02:19:37.178Z,1009.98
2018-05-31T02:20:36.911Z,1010.00
2018-05-31T02:21:37.315Z,1010.07
2018-05-31T02:22:37.043Z,1010.17
2018-05-31T02:23:37.223Z,1010.15
2018-05-31T02:24:37.179Z,1010.12
2018-05-31T02:25:37.247Z,1010.03
2018-05-31T02:26:37.311Z,1010.04
2018-05-31T02:27:37.379Z,1010.13
2018-05-31T02:28:37.453Z,1010.24
2018-05-31T02:29:37.519Z,1010.26
2018-05-31T02:30:37.579Z,1010.13
2018-05-31T02:31:38.556Z,1010.16
2018-05-31T02:32:37.711Z,1010.23
2018-05-31T02:33:37.787Z,1010.26
2018-05-31T02:34:37.851Z,1010.19
2018-05-31T02:35:37.911Z,1010.17
2018-05-31T02:36:37.979Z,1010.09
2018-05-31T02:37:38.513Z,1010.10
2018-05-31T02:38:38.348Z,1010.10
2018-05-31T02:39:38.832Z,1010.08
2018-05-31T02:40:38.248Z,1010.09
2018-05-31T02:41:38.316Z,1010.08
2018-05-31T02:42:38.380Z,1010.12
2018-05-31T02:43:38.455Z,1010.08
2018-05-31T02:44:39.019Z,1010.11
2018-05-31T02:45:38.583Z,1010.09
2018-05-31T02:46:38.651Z,1010.08
2018-05-31T02:47:38.720Z,1010.08
2018-05-31T02:48:39.549Z,1010.09
2018-05-31T02:49:38.856Z,1010.08
2018-05-31T02:50:38.915Z,1010.05
2018-05-31T02:51:39.132Z,1010.06
2018-05-31T02:52:39.047Z,1010.08
2018-05-31T02:53:39.272Z,1010.11
2018-05-31T02:54:39.183Z,1010.09
2018-05-31T02:55:39.252Z,1010.13
2018-05-31T02:56:39.316Z,1010.14
2018-05-31T02:57:39.385Z,1010.16
2018-05-31T02:58:39.457Z,1010.18
2018-05-31T02:59:39.524Z,1010.24
2018-05-31T03:00:39.584Z,1010.20
2018-05-31T03:01:39.652Z,1010.24
2018-05-31T03:02:40.276Z,1010.21
2018-05-31T03:03:39.789Z,1010.21
2018-05-31T03:04:39.860Z,1010.19
2018-05-31T03:05:39.918Z,1010.22
2018-05-31T03:06:39.985Z,1010.26
2018-05-31T03:07:40.053Z,1010.24
2018-05-31T03:08:40.808Z,1010.29
2018-05-31T03:09:40.185Z,1010.36
2018-05-31T03:10:40.253Z,1010.34
2018-05-31T03:11:40.316Z,1010.31
2018-05-31T03:12:40.385Z,1010.27
2018-05-31T03:13:40.466Z,1010.24
2018-05-31T03:14:40.525Z,1010.21
2018-05-31T03:15:40.585Z,1010.21
2018-05-31T03:16:40.653Z,1010.26
2018-05-31T03:17:40.721Z,1010.30
2018-05-31T03:18:40.793Z,1010.35
2018-05-31T03:19:40.857Z,1010.35
2018-05-31T03:20:40.921Z,1010.36
2018-05-31T03:21:40.985Z,1010.24
2018-05-31T03:22:41.054Z,1010.27
2018-05-31T03:23:41.229Z,1010.31
2018-05-31T03:24:41.187Z,1010.35
2018-05-31T03:25:41.254Z,1010.34
2018-05-31T03:26:42.026Z,1010.35
2018-05-31T03:27:41.822Z,1010.42
2018-05-31T03:28:42.142Z,1010.36
2018-05-31T03:29:42.078Z,1010.41
2018-05-31T03:30:41.588Z,1010.45
2018-05-31T03:31:41.654Z,1010.44
2018-05-31T03:32:41.722Z,1010.46
2018-05-31T03:33:41.798Z,1010.40
2018-05-31T03:34:41.862Z,1010.37
2018-05-31T03:35:42.610Z,1010.38
2018-05-31T03:36:41.994Z,1010.38
2018-05-31T03:37:42.058Z,1010.35
2018-05-31T03:38:42.275Z,1010.38
2018-05-31T03:39:42.190Z,1010.36
2018-05-31T03:40:42.254Z,1010.36
2018-05-31T03:41:42.322Z,1010.40
2018-05-31T03:42:43.194Z,1010.36
2018-05-31T03:43:42.462Z,1010.40
2018-05-31T03:44:42.530Z,1010.40
2018-05-31T03:45:42.591Z,1010.43
2018-05-31T03:46:42.654Z,1010.41
2018-05-31T03:47:42.722Z,1010.41
2018-05-31T03:48:42.794Z,1010.43
2018-05-31T03:49:42.862Z,1010.40
2018-05-31T03:50:42.924Z,1010.38
2018-05-31T03:51:42.990Z,1010.34
2018-05-31T03:52:43.399Z,1010.37
2018-05-31T03:53:43.287Z,1010.37
2018-05-31T03:54:43.191Z,1010.34
2018-05-31T03:55:43.843Z,1010.35
2018-05-31T03:56:43.955Z,1010.33
2018-05-31T03:57:43.391Z,1010.29
2018-05-31T03:58:43.474Z,1010.30
2018-05-31T03:59:43.847Z,1010.31
2018-05-31T04:00:43.923Z,1010.34
2018-05-31T04:01:44.067Z,1010.39
2018-05-31T04:02:43.723Z,1010.47
2018-05-31T04:03:43.795Z,1010.48
2018-05-31T04:04:43.871Z,1010.52
2018-05-31T04:05:43.926Z,1010.51
2018-05-31T04:06:43.991Z,1010.54
2018-05-31T04:07:44.392Z,1010.54
2018-05-31T04:08:44.543Z,1010.51
2018-05-31T04:09:44.563Z,1010.51
2018-05-31T04:10:44.256Z,1010.47
2018-05-31T04:11:44.479Z,1010.44
2018-05-31T04:12:44.972Z,1010.47
2018-05-31T04:13:44.466Z,1010.46
2018-05-31T04:14:44.532Z,1010.46
2018-05-31T04:15:44.592Z,1010.47
2018-05-31T04:16:44.659Z,1010.50
2018-05-31T04:17:44.724Z,1010.53
2018-05-31T04:18:44.812Z,1010.51
2018-05-31T04:19:44.863Z,1010.51
2018-05-31T04:20:44.923Z,1010.49
2018-05-31T04:21:44.991Z,1010.50
2018-05-31T04:22:45.059Z,1010.50
2018-05-31T04:23:45.497Z,1010.54
2018-05-31T04:24:46.048Z,1010.58
2018-05-31T04:25:45.260Z,1010.57
2018-05-31T04:26:45.725Z,1010.58
2018-05-31T04:27:45.896Z,1010.57
2018-05-31T04:28:45.470Z,1010.58
2018-05-31T04:29:46.221Z,1010.57
2018-05-31T04:30:45.592Z,1010.62
2018-05-31T04:31:45.660Z,1010.67
2018-05-31T04:32:46.240Z,1010.68
2018-05-31T04:33:45.802Z,1010.68
2018-05-31T04:34:46.241Z,1010.72
2018-05-31T04:35:45.934Z,1010.70
2018-05-31T04:36:46.188Z,1010.72
2018-05-31T04:37:46.061Z,1010.77
2018-05-31T04:38:46.242Z,1010.76
2018-05-31T04:39:46.957Z,1010.76
2018-05-31T04:40:46.261Z,1010.79
2018-05-31T04:41:46.329Z,1010.79
2018-05-31T04:42:46.397Z,1010.77
2018-05-31T04:43:46.817Z,1010.81
2018-05-31T04:44:47.125Z,1010.81
2018-05-31T04:45:46.597Z,1010.80
2018-05-31T04:46:46.669Z,1010.81
2018-05-31T04:47:46.733Z,1010.82
2018-05-31T04:48:47.149Z,1010.84
2018-05-31T04:49:46.868Z,1010.85
2018-05-31T04:50:47.529Z,1010.83
2018-05-31T04:51:47.002Z,1010.90
2018-05-31T04:52:47.597Z,1010.88
2018-05-31T04:53:47.341Z,1010.93
2018-05-31T04:54:47.201Z,1010.94
2018-05-31T04:55:47.269Z,1010.93
2018-05-31T04:56:47.350Z,1010.90
2018-05-31T04:57:47.405Z,1010.97
2018-05-31T04:58:49.064Z,1010.99
2018-05-31T04:59:47.773Z,1010.96
2018-05-31T05:00:47.615Z,1010.92
2018-05-31T05:01:47.669Z,1010.95
2018-05-31T05:02:47.741Z,1010.92
2018-05-31T05:03:47.821Z,1010.93
2018-05-31T05:04:47.890Z,1010.96
2018-05-31T05:05:48.609Z,1010.87
2018-05-31T05:06:48.017Z,1010.90
2018-05-31T05:07:48.081Z,1010.90
2018-05-31T05:08:48.309Z,1010.92
2018-05-31T05:09:48.221Z,1010.92
2018-05-31T05:10:48.282Z,1010.95
2018-05-31T05:11:48.349Z,1010.98
2018-05-31T05:12:48.421Z,1010.94
2018-05-31T05:13:48.493Z,1010.96
2018-05-31T05:14:48.562Z,1010.97
2018-05-31T05:15:50.561Z,1011.01
2018-05-31T05:16:48.693Z,1011.02
2018-05-31T05:17:49.238Z,1011.00
2018-05-31T05:18:49.594Z,1011.01
2018-05-31T05:19:49.462Z,1011.04
2018-05-31T05:20:48.962Z,1011.09
2018-05-31T05:21:49.030Z,1011.08
2018-05-31T05:22:49.319Z,1011.11
2018-05-31T05:23:49.186Z,1011.14
2018-05-31T05:24:49.238Z,1011.15
2018-05-31T05:25:49.306Z,1011.15
2018-05-31T05:26:49.374Z,1011.15
2018-05-31T05:27:49.474Z,1011.17
2018-05-31T05:28:49.748Z,1011.19
2018-05-31T05:29:50.178Z,1011.16
2018-05-31T05:30:49.786Z,1011.15
2018-05-31T05:31:49.758Z,1011.18
2018-05-31T05:32:49.783Z,1011.24
2018-05-31T05:33:49.858Z,1011.22
2018-05-31T05:34:49.927Z,1011.23
2018-05-31T05:35:50.035Z,1011.20
2018-05-31T05:36:50.298Z,1011.17
2018-05-31T05:37:50.134Z,1011.15
2018-05-31T05:38:50.570Z,1011.12
2018-05-31T05:39:50.259Z,1011.13
2018-05-31T05:40:50.331Z,1011.13
2018-05-31T05:41:50.399Z,1011.15
2018-05-31T05:42:50.471Z,1011.15
2018-05-31T05:43:50.542Z,1011.21
2018-05-31T05:44:50.983Z,1011.23
2018-05-31T05:45:50.691Z,1011.26
2018-05-31T05:46:50.747Z,1011.22
2018-05-31T05:47:50.811Z,1011.28
2018-05-31T05:48:50.896Z,1011.24
2018-05-31T05:49:52.614Z,1011.26
2018-05-31T05:50:51.015Z,1011.23
2018-05-31T05:51:51.088Z,1011.24
2018-05-31T05:52:51.155Z,1011.28
2018-05-31T05:53:52.568Z,1011.26
2018-05-31T05:54:51.387Z,1011.31
2018-05-31T05:55:51.719Z,1011.29
2018-05-31T05:56:51.431Z,1011.28
2018-05-31T05:57:51.588Z,1011.29
2018-05-31T05:58:51.569Z,1011.24
2018-05-31T05:59:51.644Z,1011.33
2018-05-31T06:00:51.712Z,1011.29
2018-05-31T06:01:51.849Z,1011.34
2018-05-31T06:02:51.879Z,1011.35
2018-05-31T06:03:51.912Z,1011.39
2018-05-31T06:04:51.988Z,1011.42
2018-05-31T06:05:52.059Z,1011.47
2018-05-31T06:06:52.808Z,1011.46
2018-05-31T06:07:52.204Z,1011.46
2018-05-31T06:08:52.436Z,1011.51
2018-05-31T06:09:52.398Z,1011.50
2018-05-31T06:10:52.392Z,1011.49
2018-05-31T06:11:52.557Z,1011.53
2018-05-31T06:12:52.537Z,1011.52
2018-05-31T06:13:53.292Z,1011.61
2018-05-31T06:14:52.713Z,1011.69
2018-05-31T06:15:52.769Z,1012.38
2018-05-31T06:16:52.869Z,1012.90
2018-05-31T06:17:52.985Z,1013.56
2018-05-31T06:18:52.967Z,1013.64
2018-05-31T06:19:53.368Z,1013.51
2018-05-31T06:20:53.173Z,1013.86
2018-05-31T06:21:53.185Z,1013.37
2018-05-31T06:22:53.408Z,1013.03
2018-05-31T06:23:53.318Z,1012.62
2018-05-31T06:24:53.857Z,1012.32
2018-05-31T06:25:53.461Z,1012.75
2018-05-31T06:26:53.525Z,1012.69
2018-05-31T06:27:53.585Z,1012.43
2018-05-31T06:28:53.673Z,1012.72
2018-05-31T06:29:53.746Z,1012.78
2018-05-31T06:30:53.832Z,1012.58
2018-05-31T06:31:53.893Z,1012.80
2018-05-31T06:32:53.946Z,1012.83
2018-05-31T06:33:54.018Z,1012.47
2018-05-31T06:34:55.323Z,1012.31
2018-05-31T06:35:54.161Z,1012.25
2018-05-31T06:36:54.241Z,1012.32
2018-05-31T06:37:54.314Z,1012.38
2018-05-31T06:38:54.431Z,1012.35
2018-05-31T06:39:54.457Z,1011.90
2018-05-31T06:40:54.554Z,1011.83
2018-05-31T06:41:54.610Z,1012.14
2018-05-31T06:42:54.714Z,1011.97
2018-05-31T06:43:54.741Z,1012.06
2018-05-31T06:44:54.827Z,1011.96
2018-05-31T06:45:54.968Z,1011.92
2018-05-31T06:46:54.954Z,1011.90
2018-05-31T06:47:56.926Z,1011.95
2018-05-31T06:48:55.121Z,1012.05
2018-05-31T06:49:55.418Z,1012.05
2018-05-31T06:50:55.246Z,1012.08
2018-05-31T06:51:55.314Z,1012.08
2018-05-31T06:52:55.394Z,1012.03
2018-05-31T06:53:55.462Z,1012.07
2018-05-31T06:54:55.555Z,1012.35
2018-05-31T06:55:55.650Z,1012.11
2018-05-31T06:56:57.214Z,1012.07
2018-05-31T06:57:55.754Z,1012.08
2018-05-31T06:58:55.831Z,1012.08
2018-05-31T06:59:55.934Z,1011.98
2018-05-31T07:00:55.980Z,1011.98
2018-05-31T07:01:56.039Z,1011.98
2018-05-31T07:02:56.102Z,1012.08
2018-05-31T07:03:56.176Z,1012.18
2018-05-31T07:04:56.250Z,1012.17
2018-05-31T07:05:56.514Z,1012.29
2018-05-31T07:06:57.395Z,1012.26
2018-05-31T07:07:56.490Z,1012.02
2018-05-31T07:08:56.538Z,1011.90
2018-05-31T07:09:56.614Z,1011.87
2018-05-31T07:10:56.724Z,1011.84
2018-05-31T07:11:56.795Z,1011.84
2018-05-31T07:12:56.863Z,1011.92
2018-05-31T07:13:57.731Z,1012.83
2018-05-31T07:14:56.971Z,1012.91
2018-05-31T07:15:57.104Z,1012.02
2018-05-31T07:16:57.167Z,1012.01
2018-05-31T07:17:57.187Z,1011.95
2018-05-31T07:18:57.804Z,1011.84
2018-05-31T07:19:57.516Z,1011.83
2018-05-31T07:20:58.353Z,1011.76
2018-05-31T07:21:57.483Z,1011.74
2018-05-31T07:22:57.851Z,1011.73
2018-05-31T07:23:57.691Z,1011.70
2018-05-31T07:24:57.696Z,1011.76
2018-05-31T07:25:57.852Z,1011.81
2018-05-31T07:26:57.844Z,1011.82
2018-05-31T07:27:57.908Z,1011.85
2018-05-31T07:28:57.991Z,1011.87
2018-05-31T07:29:58.064Z,1011.86
2018-05-31T07:30:58.172Z,1011.87
2018-05-31T07:31:58.224Z,1011.86
2018-05-31T07:32:59.524Z,1011.89
2018-05-31T07:33:58.336Z,1011.84
2018-05-31T07:34:59.036Z,1011.83
2018-05-31T07:35:58.492Z,1011.80
2018-05-31T07:36:58.588Z,1011.83
2018-05-31T07:37:58.632Z,1011.83
2018-05-31T07:38:58.700Z,1011.81
2018-05-31T07:39:58.776Z,1011.81
2018-05-31T07:40:59.072Z,1011.79
2018-05-31T07:41:58.920Z,1011.78
2018-05-31T07:42:59.484Z,1011.82
2018-05-31T07:43:59.124Z,1011.82
2018-05-31T07:44:59.128Z,1011.82
2018-05-31T07:45:59.361Z,1011.87
2018-05-31T07:46:59.276Z,1011.86
2018-05-31T07:47:59.413Z,1011.85
2018-05-31T07:48:59.416Z,1011.85
2018-05-31T07:49:59.488Z,1011.89
2018-05-31T07:50:59.568Z,1011.89
2018-05-31T07:52:00.313Z,1011.93
2018-05-31T07:52:59.705Z,1011.98
2018-05-31T07:53:59.777Z,1012.63
2018-05-31T07:54:59.848Z,1012.37
2018-05-31T07:55:59.929Z,1012.69
2018-05-31T07:57:00.001Z,1012.88
2018-05-31T07:58:00.117Z,1012.85
2018-05-31T07:59:00.145Z,1012.87
2018-05-31T08:00:00.221Z,1012.83
2018-05-31T08:01:00.317Z,1012.85
2018-05-31T08:02:00.365Z,1012.76
2018-05-31T08:03:00.441Z,1012.75
2018-05-31T08:04:00.517Z,1012.73
2018-05-31T08:05:00.597Z,1012.70
2018-05-31T08:06:00.763Z,1012.23
2018-05-31T08:07:03.524Z,1012.23
2018-05-31T08:08:00.829Z,1012.40
2018-05-31T08:09:01.469Z,1012.28
2018-05-31T08:10:00.981Z,1012.17
2018-05-31T08:11:01.103Z,1012.63
2018-05-31T08:12:01.150Z,1012.10
2018-05-31T08:13:01.280Z,1012.61
2018-05-31T08:14:01.290Z,1012.33
2018-05-31T08:15:01.834Z,1012.01
2018-05-31T08:16:01.460Z,1012.04
2018-05-31T08:17:01.536Z,1012.08
2018-05-31T08:18:01.614Z,1012.08
2018-05-31T08:19:01.681Z,1012.20
2018-05-31T08:20:01.765Z,1012.06
2018-05-31T08:21:01.846Z,1012.04
2018-05-31T08:22:01.925Z,1012.03
2018-05-31T08:23:01.993Z,1012.01
2018-05-31T08:24:02.069Z,1011.99
2018-05-31T08:25:02.145Z,1012.70
2018-05-31T08:26:02.431Z,1011.98
2018-05-31T08:27:02.461Z,1011.92
2018-05-31T08:28:02.372Z,1011.93
2018-05-31T08:29:02.445Z,1011.93
2018-05-31T08:30:02.627Z,1011.97
2018-05-31T08:31:02.597Z,1011.94
2018-05-31T08:32:02.677Z,1011.95
2018-05-31T08:33:02.753Z,1011.97
2018-05-31T08:34:02.821Z,1011.93
2018-05-31T08:35:02.893Z,1011.94
2018-05-31T08:36:02.969Z,1011.90
2018-05-31T08:37:03.043Z,1011.92
2018-05-31T08:38:03.123Z,1011.91
2018-05-31T08:39:03.183Z,1011.88
2018-05-31T08:40:03.259Z,1011.87
2018-05-31T08:41:03.330Z,1011.87
2018-05-31T08:42:03.515Z,1011.86
2018-05-31T08:43:03.479Z,1011.88
2018-05-31T08:44:03.597Z,1011.86
2018-05-31T08:45:03.811Z,1011.90
2018-05-31T08:46:03.699Z,1011.90
2018-05-31T08:47:04.187Z,1011.87
2018-05-31T08:48:03.847Z,1011.90
2018-05-31T08:49:04.144Z,1011.94
2018-05-31T08:50:03.988Z,1011.94
2018-05-31T08:51:04.073Z,1011.91
2018-05-31T08:52:04.300Z,1011.93
2018-05-31T08:53:04.204Z,1011.92
2018-05-31T08:54:04.275Z,1011.93
2018-05-31T08:55:04.352Z,1011.95
2018-05-31T08:56:04.420Z,1011.91
2018-05-31T08:57:04.780Z,1011.94
2018-05-31T08:58:04.579Z,1011.94
2018-05-31T08:59:04.636Z,1011.90
2018-05-31T09:00:04.792Z,1011.86
2018-05-31T09:01:04.780Z,1011.85
2018-05-31T09:02:04.856Z,1011.85
2018-05-31T09:03:04.928Z,1011.86
2018-05-31T09:04:04.992Z,1011.84
2018-05-31T09:05:05.064Z,1011.85
2018-05-31T09:06:05.136Z,1011.86
2018-05-31T09:07:05.208Z,1011.87
2018-05-31T09:08:05.432Z,1011.85
2018-05-31T09:09:05.348Z,1011.82
2018-05-31T09:10:05.420Z,1011.79
2018-05-31T09:11:05.704Z,1011.83
2018-05-31T09:12:05.564Z,1011.81
2018-05-31T09:13:06.248Z,1011.85
2018-05-31T09:14:06.045Z,1011.83
2018-05-31T09:15:05.966Z,1011.84
2018-05-31T09:16:05.849Z,1011.84
2018-05-31T09:17:05.921Z,1011.85
2018-05-31T09:18:05.997Z,1011.87
2018-05-31T09:19:06.412Z,1011.86
2018-05-31T09:20:06.139Z,1011.89
2018-05-31T09:21:06.205Z,1011.89
2018-05-31T09:22:06.273Z,1011.91
2018-05-31T09:23:06.566Z,1011.98
2018-05-31T09:24:06.573Z,1011.96
2018-05-31T09:25:06.485Z,1011.99
2018-05-31T09:26:06.777Z,1011.99
2018-05-31T09:27:06.629Z,1012.02
2018-05-31T09:28:07.133Z,1012.04
2018-05-31T09:29:06.777Z,1012.08
2018-05-31T09:30:06.965Z,1012.10
2018-05-31T09:31:06.917Z,1012.09
2018-05-31T09:32:06.981Z,1012.08
2018-05-31T09:33:07.053Z,1012.16
2018-05-31T09:34:07.125Z,1012.17
2018-05-31T09:35:07.506Z,1012.20
2018-05-31T09:36:07.265Z,1012.18
2018-05-31T09:37:07.341Z,1012.19
2018-05-31T09:38:07.561Z,1012.17
2018-05-31T09:39:07.477Z,1012.17
2018-05-31T09:40:07.729Z,1012.22
2018-05-31T09:41:07.645Z,1012.20
2018-05-31T09:42:07.693Z,1012.16
2018-05-31T09:43:07.761Z,1012.13
2018-05-31T09:44:07.835Z,1012.14
2018-05-31T09:45:08.160Z,1012.16
2018-05-31T09:46:08.289Z,1012.12
2018-05-31T09:47:08.047Z,1012.15
2018-05-31T09:48:08.113Z,1012.15
2018-05-31T09:49:08.189Z,1012.13
2018-05-31T09:50:08.582Z,1012.11
2018-05-31T09:51:08.574Z,1012.12
2018-05-31T09:52:08.562Z,1012.14
2018-05-31T09:53:08.474Z,1012.13
2018-05-31T09:54:08.545Z,1012.13
2018-05-31T09:55:08.890Z,1012.12
2018-05-31T09:56:08.774Z,1012.10
2018-05-31T09:57:08.762Z,1012.12
2018-05-31T09:58:08.847Z,1012.14
2018-05-31T09:59:08.901Z,1012.12
2018-05-31T10:00:09.378Z,1012.11
2018-05-31T10:01:09.070Z,1012.12
2018-05-31T10:02:09.365Z,1012.14
2018-05-31T10:03:09.186Z,1012.16
2018-05-31T10:04:09.258Z,1012.14
2018-05-31T10:05:09.332Z,1012.16
2018-05-31T10:06:09.562Z,1012.15
2018-05-31T10:07:09.470Z,1012.17
2018-05-31T10:08:09.542Z,1012.13
2018-05-31T10:09:09.614Z,1012.16
2018-05-31T10:10:09.690Z,1012.15
2018-05-31T10:11:09.763Z,1012.18
2018-05-31T10:12:09.835Z,1012.16
2018-05-31T10:13:09.898Z,1012.18
2018-05-31T10:14:09.987Z,1012.26
2018-05-31T10:15:10.043Z,1012.26
2018-05-31T10:16:10.223Z,1012.28
2018-05-31T10:17:10.247Z,1012.29
2018-05-31T10:18:10.255Z,1012.30
2018-05-31T10:19:10.334Z,1012.28
2018-05-31T10:20:10.395Z,1012.29
2018-05-31T10:21:10.474Z,1012.30
2018-05-31T10:22:10.835Z,1012.31
2018-05-31T10:23:10.607Z,1012.34
2018-05-31T10:24:10.679Z,1012.30
2018-05-31T10:25:10.811Z,1012.28
2018-05-31T10:26:10.943Z,1012.37
2018-05-31T10:27:11.084Z,1012.33
2018-05-31T10:28:10.967Z,1012.35
2018-05-31T10:29:11.120Z,1012.34
2018-05-31T10:30:11.116Z,1012.35
2018-05-31T10:31:11.175Z,1012.32
2018-05-31T10:32:11.420Z,1012.28
2018-05-31T10:33:11.344Z,1012.31
2018-05-31T10:34:11.392Z,1012.30
2018-05-31T10:35:11.459Z,1012.31
2018-05-31T10:36:11.538Z,1012.33
2018-05-31T10:37:11.608Z,1012.32
2018-05-31T10:38:11.679Z,1012.34
2018-05-31T10:39:11.744Z,1012.32
2018-05-31T10:40:11.936Z,1012.20
2018-05-31T10:41:11.888Z,1012.22
2018-05-31T10:42:11.963Z,1012.23
2018-05-31T10:43:12.036Z,1012.22
2018-05-31T10:44:12.100Z,1012.16
2018-05-31T10:45:12.172Z,1012.14
2018-05-31T10:46:12.268Z,1012.14
2018-05-31T10:47:12.468Z,1012.12
2018-05-31T10:48:12.388Z,1012.08
2018-05-31T10:49:12.501Z,1012.09
2018-05-31T10:50:12.561Z,1012.03
2018-05-31T10:51:12.697Z,1012.05
2018-05-31T10:52:12.681Z,1012.02
2018-05-31T10:53:12.753Z,1011.97
2018-05-31T10:54:12.820Z,1011.99
2018-05-31T10:55:12.889Z,1011.97
2018-05-31T10:56:12.960Z,1011.93
2018-05-31T10:57:13.065Z,1011.90
2018-05-31T10:58:13.113Z,1011.84
2018-05-31T10:59:13.201Z,1011.83
2018-05-31T11:00:13.253Z,1011.85
2018-05-31T11:01:13.321Z,1011.80
2018-05-31T11:02:13.404Z,1011.80
2018-05-31T11:03:13.469Z,1011.78
2018-05-31T11:04:13.533Z,1011.83
2018-05-31T11:05:13.605Z,1011.81
2018-05-31T11:06:13.693Z,1011.79
2018-05-31T11:07:13.755Z,1011.81
2018-05-31T11:08:13.829Z,1011.84
2018-05-31T11:09:13.913Z,1011.76
2018-05-31T11:10:13.974Z,1011.79
2018-05-31T11:11:14.036Z,1011.73
2018-05-31T11:12:14.234Z,1011.78
2018-05-31T11:13:14.178Z,1011.75
2018-05-31T11:14:14.249Z,1011.74
2018-05-31T11:15:14.322Z,1011.80
2018-05-31T11:16:14.401Z,1011.84
2018-05-31T11:17:14.469Z,1011.84
2018-05-31T11:18:14.542Z,1011.85
2018-05-31T11:19:14.606Z,1011.86
2018-05-31T11:20:14.682Z,1011.80
2018-05-31T11:21:14.750Z,1011.82
2018-05-31T11:22:14.830Z,1011.82
2018-05-31T11:23:14.926Z,1011.84
2018-05-31T11:24:15.014Z,1011.80
2018-05-31T11:25:15.041Z,1011.90
2018-05-31T11:26:15.114Z,1011.90
2018-05-31T11:27:15.342Z,1011.90
2018-05-31T11:28:15.250Z,1011.90
2018-05-31T11:29:15.372Z,1011.91
2018-05-31T11:30:15.395Z,1011.90
2018-05-31T11:31:15.471Z,1011.94
2018-05-31T11:32:15.547Z,1011.92
2018-05-31T11:33:15.619Z,1011.93
2018-05-31T11:34:15.711Z,1011.94
2018-05-31T11:35:15.758Z,1011.98
2018-05-31T11:36:15.827Z,1011.98
2018-05-31T11:37:15.909Z,1011.98
2018-05-31T11:38:15.983Z,1011.98
2018-05-31T11:39:16.042Z,1011.98
2018-05-31T11:40:16.115Z,1011.96
2018-05-31T11:41:16.187Z,1012.02
2018-05-31T11:42:16.258Z,1012.02
2018-05-31T11:43:16.452Z,1012.04
2018-05-31T11:44:16.403Z,1012.05
2018-05-31T11:45:16.475Z,1012.04
2018-05-31T11:46:16.547Z,1012.05
2018-05-31T11:47:16.887Z,1012.10
2018-05-31T11:48:16.763Z,1012.07
2018-05-31T11:49:16.775Z,1012.09
2018-05-31T11:50:16.835Z,1012.06
2018-05-31T11:51:16.907Z,1012.02
2018-05-31T11:52:16.983Z,1012.00
2018-05-31T11:53:17.064Z,1011.95
2018-05-31T11:54:17.136Z,1011.96
2018-05-31T11:55:17.199Z,1011.99
2018-05-31T11:56:17.275Z,1011.98
2018-05-31T11:57:17.344Z,1011.95
2018-05-31T11:58:17.424Z,1011.92
2018-05-31T11:59:17.496Z,1011.86
2018-05-31T12:00:17.560Z,1011.87
2018-05-31T12:01:17.636Z,1011.82
2018-05-31T12:02:17.708Z,1011.84
2018-05-31T12:03:17.785Z,1011.86
2018-05-31T12:04:17.872Z,1011.83
2018-05-31T12:05:17.932Z,1011.86
2018-05-31T12:06:18.072Z,1011.84